Time;durP1;ratioP1;P1;durP2;ratioP2;P2;SDS_P1;SDS_P2;PMS_P1;PMS_P2;Temp;Humidity;BMP_temperature;BMP_pressure;BME280_temperature;BME280_humidity;BME280_pressure;Samples;Min_cycle;Max_cycle;Signal;HPM_P1;HPM_P2
2021/07/09 00:01:21;;;;;;;14.80;0.30;;;18.90;61.60;;;;;;5009659;28;20511;-81
2021/07/09 00:03:47;;;;;;;4.07;0.57;;;18.80;61.70;;;;;;5006650;28;20026;-84
2021/07/09 00:06:13;;;;;;;0.10;0.00;;;18.80;61.80;;;;;;5009612;28;20033;-89
2021/07/09 00:08:39;;;;;;;0.38;0.38;;;18.70;61.90;;;;;;5012096;28;20030;-85
2021/07/09 00:11:05;;;;;;;0.00;0.00;;;18.70;62.00;;;;;;5027391;28;20018;-84
2021/07/09 00:13:32;;;;;;;0.00;0.00;;;18.70;62.00;;;;;;5027422;28;20033;-84
2021/07/09 00:15:58;;;;;;;0.32;0.15;;;18.60;62.10;;;;;;5010823;28;20052;-84
2021/07/09 00:18:24;;;;;;;0.47;0.00;;;18.60;62.10;;;;;;5027211;28;20034;-84
2021/07/09 00:20:50;;;;;;;1.10;0.20;;;18.60;62.20;;;;;;5026893;28;20037;-84
2021/07/09 00:23:16;;;;;;;0.10;0.00;;;18.60;62.30;;;;;;5027456;28;20033;-84
2021/07/09 00:25:43;;;;;;;2.70;0.32;;;18.50;62.30;;;;;;5027206;28;20033;-84
2021/07/09 00:28:09;;;;;;;0.00;0.00;;;18.50;62.40;;;;;;5012108;28;20033;-84
2021/07/09 00:30:35;;;;;;;0.70;0.22;;;18.50;62.50;;;;;;5010460;28;20026;-85
2021/07/09 00:33:01;;;;;;;0.40;0.05;;;18.50;62.50;;;;;;5007549;28;20046;-85
2021/07/09 00:35:27;;;;;;;0.25;0.10;;;18.50;62.70;;;;;;5003027;28;20033;-85
2021/07/09 00:37:53;;;;;;;0.85;0.17;;;18.40;62.60;;;;;;5027209;28;20030;-84
2021/07/09 00:40:19;;;;;;;0.00;0.00;;;18.40;62.70;;;;;;5027162;28;20496;-84
2021/07/09 00:42:45;;;;;;;0.20;0.10;;;18.40;62.80;;;;;;5010276;28;20034;-85
2021/07/09 00:45:12;;;;;;;0.00;0.00;;;18.30;62.80;;;;;;5026457;28;20499;-84
2021/07/09 00:47:41;;;;;;;1.27;0.32;;;18.30;62.90;;;;;;5006649;28;20496;-83
2021/07/09 00:50:08;;;;;;;0.38;0.00;;;18.30;62.90;;;;;;5015873;28;20030;-85
2021/07/09 00:52:34;;;;;;;0.30;0.10;;;18.30;63.00;;;;;;5010598;28;20400;-85
2021/07/09 00:55:00;;;;;;;0.00;0.00;;;18.30;63.00;;;;;;5011142;28;20086;-84
2021/07/09 00:57:27;;;;;;;0.03;0.00;;;18.20;63.00;;;;;;5011603;28;20508;-84
2021/07/09 00:59:53;;;;;;;0.00;0.00;;;18.20;63.10;;;;;;5028773;28;20037;-84
2021/07/09 01:02:19;;;;;;;2.72;0.32;;;18.20;63.10;;;;;;5029823;28;20037;-84
2021/07/09 01:04:45;;;;;;;4.88;0.20;;;18.20;63.20;;;;;;5030596;28;20034;-84
2021/07/09 01:07:11;;;;;;;0.20;0.00;;;18.20;63.30;;;;;;5015544;28;20038;-84
2021/07/09 01:09:38;;;;;;;0.57;0.22;;;18.20;63.30;;;;;;5024817;28;20041;-83
2021/07/09 01:12:04;;;;;;;0.85;0.10;;;18.10;63.30;;;;;;5026860;28;20041;-84
2021/07/09 01:14:30;;;;;;;1.38;0.10;;;18.10;63.40;;;;;;5030343;28;20034;-85
2021/07/09 01:16:56;;;;;;;0.22;0.22;;;18.10;63.50;;;;;;5029565;28;20046;-85
2021/07/09 01:19:22;;;;;;;0.80;0.05;;;18.10;63.60;;;;;;5030431;28;20042;-85
2021/07/09 01:21:48;;;;;;;0.30;0.15;;;18.00;63.60;;;;;;5014428;28;20033;-83
2021/07/09 01:24:15;;;;;;;0.22;0.20;;;18.00;63.60;;;;;;5030465;28;20473;-83
2021/07/09 01:26:41;;;;;;;0.00;0.00;;;18.00;63.70;;;;;;5030126;28;20033;-84
2021/07/09 01:29:08;;;;;;;0.55;0.20;;;18.00;63.80;;;;;;5030142;28;20037;-84
2021/07/09 01:31:34;;;;;;;0.68;0.32;;;18.00;63.90;;;;;;5013684;28;20038;-84
2021/07/09 01:34:00;;;;;;;0.00;0.00;;;17.90;63.90;;;;;;5014151;28;20030;-82
2021/07/09 01:36:26;;;;;;;0.05;0.00;;;17.90;64.00;;;;;;5029846;28;20057;-84
2021/07/09 01:38:54;;;;;;;0.80;0.13;;;17.90;64.00;;;;;;5030034;28;20042;-85
2021/07/09 01:41:20;;;;;;;0.47;0.10;;;17.90;64.10;;;;;;5014637;28;20033;-84
2021/07/09 01:43:46;;;;;;;1.60;0.15;;;17.80;64.10;;;;;;5029944;28;20034;-85
2021/07/09 01:46:12;;;;;;;1.08;0.13;;;17.80;64.20;;;;;;5029228;28;20042;-84
2021/07/09 01:48:39;;;;;;;1.55;0.35;;;17.70;64.20;;;;;;5013807;28;20041;-84
2021/07/09 01:51:05;;;;;;;0.73;0.13;;;17.70;64.30;;;;;;5029665;28;20030;-84
2021/07/09 01:53:31;;;;;;;0.40;0.10;;;17.70;64.40;;;;;;5014442;28;20030;-84
2021/07/09 01:55:57;;;;;;;0.08;0.00;;;17.70;64.50;;;;;;5012989;28;20437;-84
2021/07/09 01:58:23;;;;;;;0.82;0.35;;;17.70;64.50;;;;;;5014415;28;20034;-84
2021/07/09 02:00:50;;;;;;;0.98;0.10;;;17.60;64.50;;;;;;5012946;28;20401;-85
2021/07/09 02:03:16;;;;;;;0.00;0.00;;;17.60;64.60;;;;;;5005108;28;20054;-84
2021/07/09 02:05:42;;;;;;;1.75;0.20;;;17.60;64.60;;;;;;5021146;28;20034;-81
2021/07/09 02:08:08;;;;;;;0.00;0.00;;;17.60;64.60;;;;;;5022212;28;20408;-81
2021/07/09 02:10:37;;;;;;;4.20;0.88;;;17.60;64.70;;;;;;5009377;28;20026;-84
2021/07/09 02:13:03;;;;;;;0.22;0.20;;;17.50;64.70;;;;;;5013764;28;20041;-84
2021/07/09 02:15:31;;;;;;;1.23;0.45;;;17.50;64.80;;;;;;5010203;28;20046;-83
2021/07/09 02:17:57;;;;;;;1.27;0.55;;;17.50;64.80;;;;;;5000800;28;20045;-85
2021/07/09 02:20:24;;;;;;;0.68;0.40;;;17.50;65.00;;;;;;5005287;28;20038;-83
2021/07/09 02:22:50;;;;;;;2.72;0.35;;;17.40;65.00;;;;;;5023089;28;20400;-84
2021/07/09 02:25:16;;;;;;;3.45;0.20;;;17.40;65.10;;;;;;5025294;28;20022;-84
2021/07/09 02:27:45;;;;;;;0.50;0.00;;;17.30;65.20;;;;;;4989139;28;20038;-81
2021/07/09 02:30:12;;;;;;;0.75;0.22;;;17.30;65.30;;;;;;4998364;28;20057;-83
2021/07/09 02:32:39;;;;;;;0.20;0.20;;;17.30;65.40;;;;;;5019884;28;20029;-86
2021/07/09 02:35:06;;;;;;;0.10;0.10;;;17.30;65.40;;;;;;5020631;28;20022;-84
2021/07/09 02:37:32;;;;;;;0.00;0.00;;;17.30;65.40;;;;;;5013079;28;20042;-84
2021/07/09 02:39:58;;;;;;;0.10;0.05;;;17.30;65.40;;;;;;5013244;28;20026;-84
2021/07/09 02:42:25;;;;;;;0.13;0.00;;;17.30;65.40;;;;;;5013885;28;20402;-83
2021/07/09 02:44:51;;;;;;;1.45;0.43;;;17.30;65.40;;;;;;5028903;28;20033;-85
2021/07/09 02:47:17;;;;;;;0.00;0.00;;;17.30;65.50;;;;;;5011910;28;20033;-85
2021/07/09 02:49:43;;;;;;;1.17;0.20;;;17.30;65.50;;;;;;5028808;28;20030;-85
2021/07/09 02:52:09;;;;;;;0.20;0.05;;;17.20;65.50;;;;;;5028727;28;20052;-84
2021/07/09 02:54:35;;;;;;;1.42;0.08;;;17.20;65.50;;;;;;5012623;28;20041;-85
2021/07/09 02:57:02;;;;;;;1.35;0.35;;;17.20;65.50;;;;;;5013236;28;20042;-85
2021/07/09 02:59:28;;;;;;;0.80;0.00;;;17.20;65.60;;;;;;5028052;28;20034;-85
2021/07/09 03:01:54;;;;;;;0.28;0.00;;;17.20;65.60;;;;;;5013014;28;20033;-85
2021/07/09 03:04:20;;;;;;;1.17;0.40;;;17.20;65.70;;;;;;5013396;28;20034;-85
2021/07/09 03:06:46;;;;;;;0.05;0.00;;;17.20;65.80;;;;;;5010506;28;20060;-85
2021/07/09 03:09:12;;;;;;;0.10;0.00;;;17.20;65.80;;;;;;5012962;28;20037;-84
2021/07/09 03:11:38;;;;;;;1.00;0.43;;;17.20;65.80;;;;;;5028417;28;20029;-82
2021/07/09 03:14:05;;;;;;;0.00;0.00;;;17.20;65.80;;;;;;5027841;28;20042;-85
2021/07/09 03:16:32;;;;;;;3.00;0.20;;;17.10;65.80;;;;;;5027566;28;20038;-85
2021/07/09 03:18:58;;;;;;;0.00;0.00;;;17.10;65.90;;;;;;5013391;28;20033;-83
2021/07/09 03:21:24;;;;;;;0.50;0.25;;;17.10;65.90;;;;;;5012610;28;20090;-85
2021/07/09 03:23:50;;;;;;;0.00;0.00;;;17.00;65.90;;;;;;5027901;28;20029;-85
2021/07/09 03:26:16;;;;;;;0.57;0.30;;;17.00;66.00;;;;;;5027903;28;20026;-85
2021/07/09 03:28:42;;;;;;;0.00;0.00;;;17.00;66.00;;;;;;5012450;28;20040;-85
2021/07/09 03:31:08;;;;;;;0.10;0.03;;;17.00;66.00;;;;;;5027635;28;20049;-86
2021/07/09 03:33:35;;;;;;;0.17;0.00;;;17.00;66.00;;;;;;5011861;28;20041;-85
2021/07/09 03:36:03;;;;;;;0.30;0.10;;;17.00;66.00;;;;;;5012631;28;20061;-85
2021/07/09 03:38:29;;;;;;;0.00;0.00;;;17.00;66.20;;;;;;5011150;28;20049;-83
2021/07/09 03:40:55;;;;;;;0.00;0.00;;;16.90;66.20;;;;;;5027785;28;20025;-85
2021/07/09 03:43:21;;;;;;;0.45;0.30;;;16.90;66.20;;;;;;5012197;28;20042;-84
2021/07/09 03:45:47;;;;;;;0.45;0.10;;;16.90;66.20;;;;;;5012603;28;20045;-85
2021/07/09 03:48:13;;;;;;;2.63;0.52;;;16.90;66.30;;;;;;5012356;28;20086;-85
2021/07/09 03:50:39;;;;;;;1.80;0.50;;;16.90;66.30;;;;;;5007736;28;20413;-85
2021/07/09 03:53:05;;;;;;;1.55;0.10;;;16.90;66.40;;;;;;5000912;28;20025;-85
2021/07/09 03:55:32;;;;;;;0.47;0.13;;;16.90;66.40;;;;;;5012442;28;20034;-85
2021/07/09 03:57:58;;;;;;;0.00;0.00;;;16.80;66.40;;;;;;5012695;28;20089;-85
2021/07/09 04:00:24;;;;;;;0.60;0.20;;;16.90;66.50;;;;;;5007567;28;20039;-84
2021/07/09 04:02:50;;;;;;;1.33;0.20;;;16.80;66.50;;;;;;5021875;28;20400;-85
2021/07/09 04:05:16;;;;;;;0.85;0.25;;;16.80;66.50;;;;;;5012146;28;20044;-83
2021/07/09 04:07:42;;;;;;;0.00;0.00;;;16.80;66.60;;;;;;5012554;28;20042;-85
2021/07/09 04:10:09;;;;;;;8.20;0.22;;;16.80;66.70;;;;;;5027672;28;20492;-85
2021/07/09 04:12:35;;;;;;;0.10;0.05;;;16.80;66.70;;;;;;5005234;28;20053;-85
2021/07/09 04:15:01;;;;;;;0.00;0.00;;;16.70;66.60;;;;;;5023487;28;20033;-84
2021/07/09 04:17:27;;;;;;;0.80;0.17;;;16.70;66.70;;;;;;5011603;28;20500;-85
2021/07/09 04:19:53;;;;;;;1.65;0.20;;;16.80;66.80;;;;;;5027356;28;20025;-85
2021/07/09 04:22:19;;;;;;;0.20;0.10;;;16.70;66.80;;;;;;5012457;28;20366;-83
2021/07/09 04:24:45;;;;;;;0.43;0.20;;;16.80;66.80;;;;;;5011598;28;20041;-84
2021/07/09 04:27:12;;;;;;;0.45;0.35;;;16.70;66.80;;;;;;5011695;28;20030;-84
2021/07/09 04:29:38;;;;;;;1.45;0.45;;;16.70;66.80;;;;;;5027115;28;20512;-85
2021/07/09 04:32:04;;;;;;;0.10;0.00;;;16.70;67.60;;;;;;5010296;28;20404;-85
2021/07/09 04:34:30;;;;;;;0.30;0.00;;;16.70;66.90;;;;;;5030221;28;20057;-85
2021/07/09 04:36:56;;;;;;;3.25;0.22;;;16.70;66.80;;;;;;5016476;28;20038;-84
2021/07/09 04:39:23;;;;;;;2.25;0.15;;;16.70;66.90;;;;;;5015849;28;20049;-85
2021/07/09 04:41:49;;;;;;;0.90;0.20;;;16.70;67.00;;;;;;5030805;28;20037;-85
2021/07/09 04:44:15;;;;;;;0.15;0.00;;;16.70;67.00;;;;;;5016356;28;20404;-83
2021/07/09 04:46:41;;;;;;;0.95;0.10;;;16.70;67.00;;;;;;5030855;28;20042;-83
2021/07/09 04:49:08;;;;;;;0.10;0.10;;;16.70;67.00;;;;;;5031552;28;20037;-82
2021/07/09 04:51:35;;;;;;;2.92;0.57;;;16.70;67.10;;;;;;5015167;28;20037;-84
2021/07/09 04:54:01;;;;;;;4.95;0.43;;;16.70;67.10;;;;;;5011617;28;20042;-85
2021/07/09 04:56:27;;;;;;;1.38;0.30;;;16.70;67.10;;;;;;5006680;28;20034;-84
2021/07/09 04:58:53;;;;;;;0.55;0.30;;;16.70;67.10;;;;;;5030872;28;20041;-85
2021/07/09 05:01:19;;;;;;;0.10;0.00;;;16.70;67.10;;;;;;5030427;28;20037;-85
2021/07/09 05:03:45;;;;;;;0.40;0.00;;;16.70;67.10;;;;;;5011531;28;20046;-85
2021/07/09 05:06:11;;;;;;;0.00;0.00;;;16.80;67.20;;;;;;5012843;28;20030;-84
2021/07/09 05:08:37;;;;;;;0.38;0.20;;;16.80;67.10;;;;;;5014966;28;20064;-84
2021/07/09 05:11:04;;;;;;;0.00;0.00;;;16.90;67.10;;;;;;5015404;28;20030;-84
2021/07/09 05:13:30;;;;;;;2.08;0.10;;;16.90;67.00;;;;;;5015545;28;20045;-85
2021/07/09 05:15:56;;;;;;;0.30;0.00;;;17.20;66.90;;;;;;5015530;28;20030;-85
2021/07/09 05:18:22;;;;;;;3.28;0.30;;;17.40;66.50;;;;;;5030251;28;20057;-84
2021/07/09 05:20:48;;;;;;;0.05;0.05;;;17.80;66.00;;;;;;5015023;28;20036;-85
2021/07/09 05:23:14;;;;;;;0.00;0.00;;;18.10;65.50;;;;;;5014828;28;20046;-84
2021/07/09 05:25:40;;;;;;;0.32;0.20;;;18.50;65.00;;;;;;5030291;28;20044;-83
2021/07/09 05:28:08;;;;;;;0.10;0.10;;;18.80;64.50;;;;;;5015337;28;20057;-81
2021/07/09 05:30:34;;;;;;;0.08;0.00;;;19.10;64.20;;;;;;5014532;28;20041;-83
2021/07/09 05:33:00;;;;;;;1.10;0.08;;;19.40;63.70;;;;;;5030024;28;20480;-82
2021/07/09 05:35:26;;;;;;;0.57;0.03;;;19.60;63.30;;;;;;5014696;28;20041;-83
2021/07/09 05:37:52;;;;;;;0.70;0.15;;;19.80;63.10;;;;;;5013396;28;20045;-84
2021/07/09 05:40:18;;;;;;;0.82;0.03;;;20.00;62.90;;;;;;5030066;28;20030;-83
2021/07/09 05:42:45;;;;;;;2.10;0.15;;;20.00;62.80;;;;;;5015182;28;20400;-83
2021/07/09 05:45:11;;;;;;;0.38;0.20;;;20.00;62.90;;;;;;5013592;28;20022;-84
2021/07/09 05:47:38;;;;;;;0.05;0.00;;;19.90;63.20;;;;;;5009763;28;20034;-83
2021/07/09 05:50:05;;;;;;;0.08;0.00;;;19.80;63.40;;;;;;5003110;28;20038;-87
2021/07/09 05:52:31;;;;;;;14.60;0.20;;;19.70;63.70;;;;;;5029370;28;20030;-83
2021/07/09 05:54:57;;;;;;;0.40;0.20;;;19.60;63.90;;;;;;5014060;28;20460;-83
2021/07/09 05:57:23;;;;;;;0.00;0.00;;;19.50;64.00;;;;;;5029949;28;20042;-83
2021/07/09 05:59:49;;;;;;;2.38;0.15;;;19.50;64.10;;;;;;5029649;28;20045;-81
2021/07/09 06:02:15;;;;;;;0.22;0.05;;;19.60;64.10;;;;;;5013994;28;20041;-84
2021/07/09 06:04:42;;;;;;;0.05;0.05;;;19.60;64.00;;;;;;5014387;28;20017;-83
2021/07/09 06:07:08;;;;;;;0.47;0.10;;;19.70;63.80;;;;;;5014405;28;20026;-82
2021/07/09 06:09:34;;;;;;;0.75;0.20;;;19.80;63.60;;;;;;5013506;28;20030;-83
2021/07/09 06:12:00;;;;;;;1.10;0.20;;;20.00;63.30;;;;;;5029355;28;20030;-83
2021/07/09 06:14:26;;;;;;;0.08;0.00;;;20.20;63.00;;;;;;5028784;28;20049;-83
2021/07/09 06:16:52;;;;;;;0.50;0.13;;;20.40;62.60;;;;;;5013657;28;20038;-85
2021/07/09 06:19:18;;;;;;;0.30;0.00;;;20.60;62.30;;;;;;5012753;28;20057;-84
2021/07/09 06:21:44;;;;;;;0.52;0.30;;;20.80;62.00;;;;;;5013003;28;20041;-83
2021/07/09 06:24:10;;;;;;;0.15;0.00;;;21.00;61.70;;;;;;5014009;28;20036;-81
2021/07/09 06:26:36;;;;;;;1.27;0.00;;;21.20;61.30;;;;;;5013914;28;20022;-83
2021/07/09 06:29:03;;;;;;;0.55;0.20;;;21.30;61.10;;;;;;5029107;28;20034;-84
2021/07/09 06:31:29;;;;;;;0.00;0.00;;;21.30;61.10;;;;;;5013058;28;20054;-84
2021/07/09 06:33:55;;;;;;;0.52;0.00;;;21.20;61.30;;;;;;5014246;28;20030;-85
2021/07/09 06:36:21;;;;;;;0.00;0.00;;;21.10;61.60;;;;;;5028642;28;20037;-84
2021/07/09 06:38:47;;;;;;;0.00;0.00;;;21.00;61.80;;;;;;5028849;28;20042;-83
2021/07/09 06:41:13;;;;;;;0.00;0.00;;;21.00;62.00;;;;;;5012211;28;20065;-84
2021/07/09 06:43:40;;;;;;;0.30;0.00;;;21.00;62.00;;;;;;5013638;28;20033;-83
2021/07/09 06:46:06;;;;;;;0.28;0.15;;;21.10;61.80;;;;;;5013513;28;20030;-82
2021/07/09 06:48:32;;;;;;;0.00;0.00;;;21.20;61.60;;;;;;5013551;28;20389;-83
2021/07/09 06:50:58;;;;;;;4.95;0.25;;;21.20;61.60;;;;;;5012954;28;20030;-84
2021/07/09 06:53:24;;;;;;;0.85;0.00;;;21.10;61.50;;;;;;5013270;28;20448;-85
2021/07/09 06:55:50;;;;;;;0.20;0.00;;;21.10;61.60;;;;;;5028588;28;20022;-85
2021/07/09 06:58:16;;;;;;;0.00;0.00;;;21.00;61.70;;;;;;5027762;28;20041;-83
2021/07/09 07:00:42;;;;;;;0.63;0.25;;;21.00;61.90;;;;;;5013213;28;20030;-84
2021/07/09 07:03:08;;;;;;;0.95;0.10;;;20.90;62.00;;;;;;5013163;28;20030;-84
2021/07/09 07:05:34;;;;;;;0.08;0.00;;;20.90;62.00;;;;;;5012383;28;20037;-84
2021/07/09 07:08:23;;;;;;;0.10;0.10;;;20.90;62.00;;;;;;5011737;28;20030;-83
2021/07/09 07:10:51;;;;;;;0.60;0.10;;;20.90;61.90;;;;;;5014052;28;20507;-84
2021/07/09 07:13:21;;;;;;;0.40;0.00;;;20.90;61.80;;;;;;5028375;28;20026;-84
2021/07/09 07:15:47;;;;;;;0.10;0.00;;;20.90;61.70;;;;;;5011148;28;20026;-84
2021/07/09 07:18:13;;;;;;;0.00;0.00;;;20.90;61.60;;;;;;5008172;28;20046;-83
2021/07/09 07:20:41;;;;;;;0.85;0.00;;;21.00;61.50;;;;;;5021236;28;20507;-87
2021/07/09 07:23:08;;;;;;;0.85;0.20;;;21.00;61.40;;;;;;5028405;28;20026;-84
2021/07/09 07:25:35;;;;;;;0.00;0.00;;;21.00;61.30;;;;;;5012528;28;20025;-84
2021/07/09 07:28:01;;;;;;;1.75;0.20;;;21.00;61.30;;;;;;5012145;28;20034;-84
2021/07/09 07:30:27;;;;;;;0.13;0.00;;;21.00;61.40;;;;;;5027186;28;20050;-86
2021/07/09 07:32:54;;;;;;;1.13;0.25;;;20.90;61.50;;;;;;5027942;28;20026;-84
2021/07/09 07:35:20;;;;;;;0.15;0.10;;;20.90;61.60;;;;;;5027509;28;20026;-85
2021/07/09 07:37:46;;;;;;;0.00;0.00;;;20.80;61.60;;;;;;5027694;28;20037;-82
2021/07/09 07:40:13;;;;;;;0.00;0.00;;;20.80;61.60;;;;;;5011683;28;20041;-84
2021/07/09 07:42:39;;;;;;;1.88;0.10;;;20.80;61.60;;;;;;4991382;28;20042;-84
2021/07/09 07:45:06;;;;;;;0.00;0.00;;;20.80;61.60;;;;;;5007508;28;20024;-84
2021/07/09 07:47:32;;;;;;;0.20;0.05;;;20.80;61.60;;;;;;5027610;28;20384;-85
2021/07/09 07:49:58;;;;;;;0.10;0.00;;;20.80;61.50;;;;;;5012088;28;20033;-84
2021/07/09 07:52:24;;;;;;;0.75;0.20;;;20.80;61.40;;;;;;5027575;28;20033;-83
2021/07/09 07:54:50;;;;;;;0.10;0.00;;;20.90;61.50;;;;;;5012999;28;20056;-85
2021/07/09 07:57:16;;;;;;;0.00;0.00;;;20.90;61.40;;;;;;5027656;28;20029;-85
2021/07/09 07:59:42;;;;;;;0.05;0.00;;;20.90;61.30;;;;;;5027701;28;20033;-85
2021/07/09 08:02:08;;;;;;;0.00;0.00;;;21.00;61.30;;;;;;5010698;28;20022;-85
2021/07/09 08:04:34;;;;;;;0.00;0.00;;;21.00;61.20;;;;;;4995264;28;20045;-85
2021/07/09 08:07:01;;;;;;;0.30;0.10;;;21.00;61.10;;;;;;5011501;28;20022;-85
2021/07/09 08:09:27;;;;;;;0.05;0.00;;;21.00;61.00;;;;;;5027127;28;20100;-84
2021/07/09 08:11:53;;;;;;;0.00;0.00;;;21.10;61.00;;;;;;5014217;28;20036;-84
2021/07/09 08:14:19;;;;;;;0.00;0.00;;;21.10;60.90;;;;;;5046903;28;20037;-85
2021/07/09 08:16:51;;;;;;;0.00;0.00;;;21.20;60.70;;;;;;5034057;28;20033;-84
2021/07/09 08:19:18;;;;;;;0.13;0.10;;;21.30;60.50;;;;;;5011734;28;20045;-85
2021/07/09 08:21:46;;;;;;;0.10;0.00;;;21.40;60.30;;;;;;5011484;28;20030;-80
2021/07/09 08:24:13;;;;;;;0.00;0.00;;;21.40;60.10;;;;;;5011912;28;20030;-85
2021/07/09 08:26:39;;;;;;;0.00;0.00;;;21.50;60.00;;;;;;5027279;28;20030;-84
2021/07/09 08:29:05;;;;;;;0.00;0.00;;;21.60;59.70;;;;;;5011834;28;20022;-82
2021/07/09 08:31:32;;;;;;;0.05;0.00;;;21.80;59.60;;;;;;5026707;28;20042;-84
2021/07/09 08:33:58;;;;;;;0.05;0.00;;;22.00;59.40;;;;;;5011023;28;20025;-84
2021/07/09 08:36:25;;;;;;;0.00;0.00;;;22.20;59.10;;;;;;5011924;28;20026;-84
2021/07/09 08:38:54;;;;;;;0.00;0.00;;;22.40;58.70;;;;;;5012014;28;20065;-85
2021/07/09 08:41:20;;;;;;;0.00;0.00;;;22.70;58.40;;;;;;5027274;28;20034;-86
2021/07/09 08:43:47;;;;;;;0.00;0.00;;;22.90;57.90;;;;;;5027134;28;20037;-84
2021/07/09 08:46:14;;;;;;;0.00;0.00;;;23.10;57.80;;;;;;5026828;28;20396;-85
2021/07/09 08:48:40;;;;;;;0.57;0.10;;;23.20;57.70;;;;;;5010326;28;20033;-86
2021/07/09 08:51:07;;;;;;;0.00;0.00;;;23.30;57.50;;;;;;5027058;28;20033;-84
2021/07/09 08:53:33;;;;;;;0.10;0.00;;;23.30;57.60;;;;;;5026807;28;20022;-85
2021/07/09 08:55:59;;;;;;;0.00;0.00;;;23.20;57.70;;;;;;5026944;28;20030;-85
2021/07/09 08:58:26;;;;;;;0.00;0.00;;;23.10;57.80;;;;;;5026901;28;20061;-84
2021/07/09 09:00:52;;;;;;;0.00;0.00;;;23.00;57.90;;;;;;5010147;28;20023;-87
2021/07/09 09:03:20;;;;;;;0.00;0.00;;;22.90;58.10;;;;;;5027017;28;20365;-84
2021/07/09 09:05:46;;;;;;;0.40;0.00;;;22.80;58.20;;;;;;5026651;28;20034;-85
2021/07/09 09:08:14;;;;;;;0.00;0.00;;;22.70;58.30;;;;;;5011651;28;20402;-87
2021/07/09 09:10:59;;;;;;;0.30;0.13;;;22.60;58.40;;;;;;5011594;28;20400;-85
2021/07/09 09:13:26;;;;;;;0.10;0.00;;;22.50;58.50;;;;;;5024638;28;20034;-85
2021/07/09 09:16:12;;;;;;;20.17;0.22;;;22.40;58.60;;;;;;5011340;28;20420;-85
2021/07/09 09:18:43;;;;;;;0.00;0.00;;;22.30;58.60;;;;;;5011673;28;20041;-85
2021/07/09 09:21:13;;;;;;;0.17;0.05;;;22.30;58.70;;;;;;5013691;28;20033;-86
2021/07/09 09:23:58;;;;;;;0.00;0.00;;;22.20;58.60;;;;;;5015258;28;20030;-85
2021/07/09 09:26:42;;;;;;;0.00;0.00;;;22.20;58.70;;;;;;5030300;28;20034;-85
2021/07/09 09:29:34;;;;;;;0.05;0.00;;;22.20;58.70;;;;;;5015155;28;20033;-84
2021/07/09 09:32:06;;;;;;;0.00;0.00;;;22.20;58.60;;;;;;5016485;28;20042;-86
2021/07/09 09:34:43;;;;;;;0.10;0.00;;;22.10;59.30;;;;;;5030056;28;20030;-84
2021/07/09 09:37:10;;;;;;;1.38;0.17;;;22.10;58.70;;;;;;5010950;28;20022;-84
2021/07/09 09:39:39;;;;;;;0.00;0.00;;;22.10;58.70;;;;;;5014780;28;20034;-85
2021/07/09 09:42:09;;;;;;;1.13;0.08;;;22.10;58.70;;;;;;5029649;28;20045;-85
2021/07/09 09:44:35;;;;;;;0.70;0.10;;;22.10;58.60;;;;;;5014402;28;20022;-84
2021/07/09 09:47:18;;;;;;;0.00;0.00;;;22.10;58.60;;;;;;5014324;28;20476;-87
2021/07/09 09:49:45;;;;;;;1.13;0.10;;;22.10;58.50;;;;;;5031216;28;20045;-85
2021/07/09 09:52:11;;;;;;;0.38;0.10;;;22.20;58.40;;;;;;5015104;28;20408;-87
2021/07/09 09:54:37;;;;;;;0.13;0.00;;;22.30;58.30;;;;;;5014810;28;20034;-84
2021/07/09 09:57:06;;;;;;;0.20;0.10;;;22.40;58.20;;;;;;5014372;28;20032;-84
2021/07/09 09:59:32;;;;;;;0.10;0.00;;;22.50;58.00;;;;;;5028862;28;20404;-84
2021/07/09 10:02:03;;;;;;;0.00;0.00;;;22.50;57.90;;;;;;5029342;28;20030;-85
2021/07/09 10:04:30;;;;;;;0.00;0.00;;;22.60;57.80;;;;;;5014463;28;20045;-84
2021/07/09 10:06:57;;;;;;;0.65;0.00;;;22.70;57.70;;;;;;5013873;28;20025;-85
2021/07/09 10:09:24;;;;;;;0.10;0.10;;;22.70;57.50;;;;;;5029686;28;20033;-82
2021/07/09 10:11:50;;;;;;;0.32;0.20;;;22.80;57.40;;;;;;5029436;28;20473;-86
2021/07/09 10:14:21;;;;;;;0.00;0.00;;;22.80;57.40;;;;;;5013891;28;20045;-85
2021/07/09 10:16:49;;;;;;;0.00;0.00;;;22.80;57.40;;;;;;5028336;28;20040;-84
2021/07/09 10:19:40;;;;;;;0.05;0.00;;;22.80;57.30;;;;;;5029228;28;20045;-84
2021/07/09 10:22:06;;;;;;;0.00;0.00;;;22.90;57.30;;;;;;5014269;28;20504;-84
2021/07/09 10:24:33;;;;;;;0.10;0.00;;;22.80;57.30;;;;;;5029467;28;20046;-85
2021/07/09 10:26:59;;;;;;;0.05;0.00;;;22.80;57.40;;;;;;5029367;28;20025;-85
2021/07/09 10:29:28;;;;;;;0.00;0.00;;;22.70;57.50;;;;;;5028662;28;20046;-85
2021/07/09 10:31:54;;;;;;;0.00;0.00;;;22.60;57.60;;;;;;5010840;28;20026;-85
2021/07/09 10:34:26;;;;;;;0.70;0.10;;;22.50;57.70;;;;;;5013922;28;20041;-83
2021/07/09 10:37:22;;;;;;;0.00;0.00;;;22.40;57.70;;;;;;5013079;28;20018;-85
2021/07/09 10:39:49;;;;;;;0.00;0.00;;;22.40;57.70;;;;;;5011674;28;20042;-83
2021/07/09 10:42:28;;;;;;;0.13;0.00;;;22.40;57.80;;;;;;5011748;28;20397;-86
2021/07/09 10:45:18;;;;;;;0.03;0.00;;;22.40;57.70;;;;;;5028433;28;20033;-85
2021/07/09 10:47:53;;;;;;;0.90;0.10;;;22.40;57.60;;;;;;5014827;28;20034;-85
2021/07/09 10:50:26;;;;;;;0.00;0.00;;;22.40;57.50;;;;;;5028553;28;20029;-85
2021/07/09 10:52:59;;;;;;;0.22;0.00;;;22.50;57.50;;;;;;5013583;28;20488;-84
2021/07/09 10:55:28;;;;;;;0.40;0.15;;;22.50;57.50;;;;;;5013443;28;20042;-87
2021/07/09 10:58:06;;;;;;;0.15;0.05;;;22.50;57.40;;;;;;5013360;28;20061;-84
2021/07/09 11:00:55;;;;;;;0.00;0.00;;;22.50;57.30;;;;;;5023549;28;20034;-85
2021/07/09 11:03:26;;;;;;;0.20;0.00;;;22.50;57.20;;;;;;5026567;28;20054;-85
2021/07/09 11:05:52;;;;;;;;;;;22.60;57.20;;;;;;5013634;28;20037;-85
2021/07/09 11:08:33;;;;;;;0.00;0.00;;;22.70;57.10;;;;;;5013009;28;19910;-84
2021/07/09 11:11:14;;;;;;;;;;;22.70;57.00;;;;;;5013694;28;20034;-85
2021/07/09 11:13:40;;;;;;;0.00;0.00;;;22.80;57.10;;;;;;4998077;28;19916;-87
2021/07/09 11:16:24;;;;;;;0.00;0.00;;;22.80;56.90;;;;;;5011785;28;20539;-84
2021/07/09 11:19:11;;;;;;;0.00;0.00;;;22.90;56.80;;;;;;5011977;28;20524;-85
2021/07/09 11:21:37;;;;;;;0.35;0.00;;;22.90;56.80;;;;;;5013088;28;20046;-87
2021/07/09 11:24:14;;;;;;;0.08;0.00;;;22.90;56.80;;;;;;5012839;28;20496;-87
2021/07/09 11:27:04;;;;;;;0.10;0.10;;;22.90;56.80;;;;;;5027243;28;20490;-84
2021/07/09 11:29:40;;;;;;;0.10;0.00;;;22.80;56.80;;;;;;5022445;28;20045;-87
2021/07/09 11:32:13;;;;;;;0.15;0.03;;;22.80;56.90;;;;;;5027699;28;20050;-86
2021/07/09 11:34:43;;;;;;;0.20;0.00;;;22.70;57.00;;;;;;5012857;28;20467;-87
2021/07/09 11:37:17;;;;;;;0.10;0.00;;;22.60;57.00;;;;;;5013266;28;20053;-87
2021/07/09 11:40:11;;;;;;;0.60;0.38;;;22.60;57.70;;;;;;5011281;28;20053;-85
2021/07/09 11:42:38;;;;;;;0.00;0.00;;;22.50;57.20;;;;;;5009599;28;20046;-86
2021/07/09 11:45:09;;;;;;;0.00;0.00;;;22.50;57.20;;;;;;5027438;28;20037;-88
2021/07/09 11:47:36;;;;;;;0.00;0.00;;;22.40;57.30;;;;;;5012571;28;20018;-86
2021/07/09 11:50:06;;;;;;;0.60;0.20;;;22.40;57.30;;;;;;5012478;28;20480;-86
2021/07/09 11:52:34;;;;;;;0.10;0.00;;;22.40;57.30;;;;;;5027665;28;20448;-87
2021/07/09 11:55:13;;;;;;;0.75;0.00;;;22.30;57.30;;;;;;5011524;28;20034;-86
2021/07/09 11:57:40;;;;;;;0.00;0.00;;;22.30;57.40;;;;;;5024384;28;20042;-85
2021/07/09 12:00:09;;;;;;;0.00;0.00;;;22.20;57.40;;;;;;5023532;28;20037;-84
2021/07/09 12:02:35;;;;;;;0.00;0.00;;;22.10;57.50;;;;;;5012220;28;20025;-86
2021/07/09 12:05:03;;;;;;;0.00;0.00;;;22.10;57.50;;;;;;5012457;28;20034;-85
2021/07/09 12:07:36;;;;;;;0.00;0.00;;;22.10;57.50;;;;;;5027098;28;20026;-84
2021/07/09 12:10:07;;;;;;;0.00;0.00;;;22.10;57.50;;;;;;5012338;28;20037;-85
2021/07/09 12:12:34;;;;;;;0.00;0.00;;;22.10;57.50;;;;;;5026552;28;20049;-85
2021/07/09 12:15:06;;;;;;;0.00;0.00;;;22.10;57.40;;;;;;5012168;28;20416;-87
2021/07/09 12:17:39;;;;;;;0.00;0.00;;;22.10;58.00;;;;;;5025866;28;20408;-87
2021/07/09 12:20:05;;;;;;;0.03;0.00;;;22.10;57.30;;;;;;5026654;28;20034;-85
2021/07/09 12:22:34;;;;;;;0.00;0.00;;;22.20;57.20;;;;;;5012306;28;20026;-85
2021/07/09 12:25:02;;;;;;;0.00;0.00;;;22.20;57.00;;;;;;5011317;28;20026;-84
2021/07/09 12:27:31;;;;;;;0.43;0.10;;;22.30;57.00;;;;;;5011944;28;20515;-84
2021/07/09 12:29:58;;;;;;;0.00;0.00;;;22.30;56.80;;;;;;5027042;28;20492;-85
2021/07/09 12:32:24;;;;;;;0.00;0.00;;;22.40;56.80;;;;;;5009941;28;20038;-85
2021/07/09 12:35:02;;;;;;;0.05;0.00;;;22.50;56.70;;;;;;5027370;28;20030;-85
2021/07/09 12:37:28;;;;;;;0.00;0.00;;;22.60;56.60;;;;;;5012413;28;20049;-84
2021/07/09 12:40:16;;;;;;;0.15;0.10;;;22.60;56.40;;;;;;5010693;28;20049;-84
2021/07/09 12:42:43;;;;;;;0.00;0.00;;;22.70;56.30;;;;;;5025816;28;20515;-87
2021/07/09 12:45:09;;;;;;;0.00;0.00;;;22.80;56.20;;;;;;5026484;28;20053;-86
2021/07/09 12:47:47;;;;;;;0.00;0.00;;;22.80;56.00;;;;;;5012009;28;20044;-86
2021/07/09 12:50:17;;;;;;;0.08;0.00;;;23.00;56.00;;;;;;5026757;28;20374;-87
2021/07/09 12:52:43;;;;;;;0.00;0.00;;;23.10;55.90;;;;;;5026345;28;20089;-87